Aviation Digital Data Service (ADDS)

Output produced by METARs form (1107 UTC 19 January 2019)
found at http://www.aviationweather.gov/metar/data/
 
SLCO 191100Z 00000KT 9999 BKN080 24/24 Q1013
TAF SLCO 191050Z 1912/2012 33006KT 9999 SCT017 BKN080 TX32/1920Z TN21 /2010Z 
     TEMPO 1917/1921 6000 TSRA FEW023CB 
     BECMG 1923/2001 00000KT BKN005 BKN070
       
SLCB 191100Z 31004KT 8000 VCSH FEW008 SCT025 OVC070 14/12 Q1028
TAF SLCB 191050Z 1912/2012 00000KT 9999 BKN027 OVC070 TX25/1919Z TN14 /2010Z 
     BECMG 1914/1916 27010KT SCT030 BKN070 
     TEMPO 1919/1921 VCTS FEW033CB 
     BECMG 2002/2004 00000KT FEW030
       
SLLP 191100Z 26005KT 9999 FEW003 SCT010 FEW017CB BKN070 07/06 Q1039
TAF SLLP 191050Z 1912/2012 12008KT 9999 SCT015 SCT070 TX17/1920Z TN05 /2010Z 
     TEMPO 1915/1918 04012KT SCT020 FEW023CB 
     TEMPO 1919/1922 8000 VCTSSH 
     BECMG 2003/2006 07005KT 3000E VCFG FEW002
       
SLPS 191100Z 23006KT 8000 BKN010 OVC070 21/20 Q1015
TAF SLPS 191050Z 1912/2012 22010KT 8000 RA BKN015 FEW027TCU OVC070 TX33/1919Z
TN21/2010Z 
     BECMG 1915/1917 20005KT 9999 NSW SCT017 BKN080 
     PROB30 
     TEMPO 1919/1922 8000 SHRA FEW030CB 
     BECMG 1923/2001 VRB02KT SCT017 SCT080
       
SLRI 191000Z 00000KT 9999 BKN004 FEW020CDB OVC070 23/23 Q1013
SLSA 191000Z 14010KT 9999 FEW015 FEW023CB BKN070 25/24 Q1012
SLET 191100Z 15012G22KT 9999 SCT023 BKN070 BKN200 21/16 Q1019
TAF SLET 191050Z 1912/2012 16013KT 9999 SCT023 BKN080 TX29/1919Z TN20 /2010Z 
     BECMG 1916/1918 15006KT SCT025 SCT080 
     BECMG 1923/2001 VRB02KT NSC
       
SLVR 191100Z 17011G21KT 9999 SCT025 BKN070 BKN200 21/16 Q1019
TAF SLVR 191050Z 1912/2012 17011KT 9999 SCT023 BKN080 TX29/1919Z TN20/2010Z 
     BECMG 1916/1918 16006KT SCT025 SCT080 
     BECMG 1923/2001 VRB02KT NSC
       
SLTJ 191100Z 00000KT 9999 SCT005 BKN015 OVC070 13/11 Q1026
TAF SLTJ 191050Z 1912/2012 00000KT 9999 SCT005 BKN015 OVC070 TX26/ 1919Z
TN14/2010Z 
     BECMG 1914/1916 14010KT SCT025 BKN070 
     TEMPO 1919/ 1921 TS FEW036CB 
     BECMG 2002/2004 00000KT BKN025 OVC070
       
SLTR 191100Z 15010KT 8000 VCSH BKN005 FEW020CB OVC070 22/21 Q1015
TAF SLTR 191050Z 1912/2012 13010KT 8000 RA BKN005 FEW020CB OVC070 TX32/1920Z
TN22/2010Z 
     BECMG 1914/1916 9999 NSW SCT015 FEW020CB SCT070 
     PROB40 
     TEMPO 1918/1922 8000 VCSH 
     BECMG 1923/2001 00000KT
       
SLYA 191000Z 00000KT 9999 BKN020 OVC070 18/16 Q1022